Time;durP1;ratioP1;P1;durP2;ratioP2;P2;SDS_P1;SDS_P2;PMS_P1;PMS_P2;Temp;Humidity;BMP_temperature;BMP_pressure;BME280_temperature;BME280_humidity;BME280_pressure;Samples;Min_cycle;Max_cycle;Signal;HPM_P1;HPM_P2
2023/07/02 00:00:38;;;;;;;3.72;2.70;;;15.80;99.90;;;;;;5135418;28;20077;-70
2023/07/02 00:03:04;;;;;;;3.35;2.50;;;15.80;99.90;;;;;;5135280;28;20389;-70
2023/07/02 00:05:30;;;;;;;5.22;2.72;;;15.80;99.90;;;;;;5134990;28;20027;-70
2023/07/02 00:07:56;;;;;;;5.10;2.78;;;15.70;99.90;;;;;;5135338;28;20038;-70
2023/07/02 00:10:21;;;;;;;4.68;2.60;;;15.70;99.90;;;;;;5135010;28;20031;-70
2023/07/02 00:12:47;;;;;;;4.10;2.75;;;15.70;99.90;;;;;;5134950;28;20030;-70
2023/07/02 00:15:13;;;;;;;5.90;3.10;;;15.60;99.90;;;;;;5095789;27;1127632;-69
2023/07/02 00:17:42;;;;;;;4.65;2.42;;;15.60;99.90;;;;;;5135920;27;20057;-69
2023/07/02 00:20:15;;;;;;;3.63;2.60;;;15.60;99.90;;;;;;5136132;27;20102;-69
2023/07/02 00:22:45;;;;;;;4.20;3.05;;;15.50;99.90;;;;;;5135865;27;20043;-69
2023/07/02 00:25:12;;;;;;;5.15;2.63;;;15.40;99.90;;;;;;5135716;27;20019;-70
2023/07/02 00:27:38;;;;;;;3.70;2.78;;;15.50;99.90;;;;;;5135744;27;20023;-70
2023/07/02 00:30:04;;;;;;;3.70;2.80;;;15.50;99.90;;;;;;5136443;27;20099;-70
2023/07/02 00:32:30;;;;;;;3.53;2.40;;;15.60;99.90;;;;;;5135806;27;20044;-70
2023/07/02 00:34:56;;;;;;;4.07;2.95;;;15.60;99.90;;;;;;5134413;27;20035;-70
2023/07/02 00:37:21;;;;;;;6.40;4.63;;;15.60;99.90;;;;;;5117575;27;20501;-70
2023/07/02 00:39:47;;;;;;;6.13;4.30;;;15.60;99.90;;;;;;5121994;27;20023;-70
2023/07/02 00:42:13;;;;;;;7.28;4.32;;;15.60;99.90;;;;;;5096769;28;20024;-70
2023/07/02 00:44:40;;;;;;;6.85;5.20;;;15.50;99.90;;;;;;5114820;28;20052;-70
2023/07/02 00:47:08;;;;;;;7.45;5.50;;;15.60;99.90;;;;;;5115092;28;20056;-70
2023/07/02 00:49:34;;;;;;;6.57;4.90;;;15.60;99.90;;;;;;5115025;28;20024;-70
2023/07/02 00:52:00;;;;;;;7.30;5.07;;;15.60;99.90;;;;;;5114460;28;20028;-70
2023/07/02 00:54:28;;;;;;;7.15;5.13;;;15.60;99.90;;;;;;5114828;28;20516;-70
2023/07/02 00:56:54;;;;;;;7.03;4.07;;;15.60;99.90;;;;;;5114606;28;20019;-70
2023/07/02 00:59:20;;;;;;;4.72;3.25;;;15.70;99.90;;;;;;5114560;28;20056;-70
2023/07/02 01:01:49;;;;;;;5.95;3.47;;;15.70;99.90;;;;;;5114542;28;20049;-70
2023/07/02 01:04:18;;;;;;;5.70;3.53;;;15.70;99.90;;;;;;5114412;28;20019;-70
2023/07/02 01:06:45;;;;;;;5.00;3.30;;;15.70;99.90;;;;;;5095974;28;20032;-70
2023/07/02 01:09:11;;;;;;;3.40;2.58;;;15.60;99.90;;;;;;5114347;28;20027;-70
2023/07/02 01:11:45;;;;;;;4.43;2.80;;;15.50;99.90;;;;;;5114358;28;20058;-70
2023/07/02 01:14:13;;;;;;;4.55;2.60;;;15.50;99.90;;;;;;5114106;28;20028;-70
2023/07/02 01:16:43;;;;;;;3.92;3.03;;;15.50;99.90;;;;;;5114536;28;20034;-70
2023/07/02 01:19:18;;;;;;;4.78;2.70;;;15.50;99.90;;;;;;5114239;28;20107;-70
2023/07/02 01:21:46;;;;;;;4.60;2.35;;;15.60;99.90;;;;;;5114056;28;20012;-70
2023/07/02 01:24:14;;;;;;;3.90;2.60;;;15.60;99.90;;;;;;5114106;28;20020;-70
2023/07/02 01:26:40;;;;;;;3.67;2.47;;;15.60;99.90;;;;;;5114137;28;20058;-70
2023/07/02 01:29:19;;;;;;;3.40;2.50;;;15.60;99.90;;;;;;5114345;28;20474;-70
2023/07/02 01:31:45;;;;;;;4.35;3.10;;;15.60;99.90;;;;;;5114068;28;20126;-70
2023/07/02 01:34:11;;;;;;;5.50;3.17;;;15.60;99.90;;;;;;5114107;28;20080;-70
2023/07/02 01:36:38;;;;;;;4.95;3.05;;;15.60;99.90;;;;;;5113671;28;20023;-70
2023/07/02 01:39:04;;;;;;;3.45;2.60;;;15.50;99.90;;;;;;5113820;28;20480;-70
2023/07/02 01:41:32;;;;;;;4.88;2.90;;;15.50;99.90;;;;;;5113815;28;20043;-70
2023/07/02 01:43:57;;;;;;;3.75;2.58;;;15.50;99.90;;;;;;5113805;28;20490;-70
2023/07/02 01:46:23;;;;;;;5.63;3.10;;;15.40;99.90;;;;;;5113606;28;20104;-70
2023/07/02 01:48:49;;;;;;;4.05;2.70;;;15.40;99.90;;;;;;5113752;28;20035;-70
2023/07/02 01:51:14;;;;;;;6.22;3.03;;;15.40;99.90;;;;;;5113478;28;20393;-70
2023/07/02 01:53:40;;;;;;;5.22;3.17;;;15.40;99.90;;;;;;5113604;28;20024;-70
2023/07/02 01:56:06;;;;;;;6.28;3.38;;;15.40;99.90;;;;;;5113586;28;20026;-70
2023/07/02 01:58:31;;;;;;;6.22;3.10;;;15.40;99.90;;;;;;5113519;28;20023;-70
2023/07/02 02:00:57;;;;;;;4.22;3.20;;;15.40;99.90;;;;;;5113740;28;20089;-70
2023/07/02 02:03:23;;;;;;;5.22;3.22;;;15.40;99.90;;;;;;5113571;28;20489;-70
2023/07/02 02:05:49;;;;;;;4.25;3.10;;;15.40;99.90;;;;;;5124557;27;20023;-70
2023/07/02 02:08:14;;;;;;;4.38;3.30;;;15.40;99.90;;;;;;5132850;28;20080;-71
2023/07/02 02:10:40;;;;;;;5.05;3.33;;;15.40;99.90;;;;;;5131892;28;20081;-70
2023/07/02 02:13:05;;;;;;;4.15;3.25;;;15.40;99.90;;;;;;5133444;28;20023;-70
2023/07/02 02:15:31;;;;;;;7.15;4.28;;;15.40;99.90;;;;;;5114965;28;20481;-70
2023/07/02 02:17:57;;;;;;;4.90;3.22;;;15.40;99.90;;;;;;5132777;28;20053;-70
2023/07/02 02:20:22;;;;;;;4.88;3.08;;;15.40;99.90;;;;;;5133729;28;20037;-70
2023/07/02 02:22:48;;;;;;;5.80;3.30;;;15.40;99.90;;;;;;5134154;28;20562;-70
2023/07/02 02:25:14;;;;;;;4.32;3.00;;;15.40;99.90;;;;;;5134096;28;20377;-70
2023/07/02 02:27:39;;;;;;;5.50;3.30;;;15.40;99.90;;;;;;5133862;28;20031;-70
2023/07/02 02:30:06;;;;;;;5.35;3.78;;;15.40;99.90;;;;;;5133881;28;20047;-70
2023/07/02 02:32:32;;;;;;;4.95;3.78;;;15.40;99.90;;;;;;5133818;28;20054;-70
2023/07/02 02:34:58;;;;;;;5.22;3.70;;;15.40;99.90;;;;;;5133496;28;20107;-71
2023/07/02 02:37:23;;;;;;;4.00;3.30;;;15.30;99.90;;;;;;5133650;28;20019;-70
2023/07/02 02:39:50;;;;;;;4.30;3.13;;;15.30;99.90;;;;;;5120353;28;20603;-70
2023/07/02 02:42:16;;;;;;;4.65;2.70;;;15.30;99.90;;;;;;5113860;28;20028;-70
2023/07/02 02:44:41;;;;;;;5.38;3.22;;;15.30;99.90;;;;;;5113194;28;20035;-70
2023/07/02 02:47:07;;;;;;;5.50;3.15;;;15.30;99.90;;;;;;5113226;28;20080;-70
2023/07/02 02:49:33;;;;;;;4.95;3.25;;;15.40;99.90;;;;;;5113246;28;20423;-70
2023/07/02 02:51:58;;;;;;;5.88;3.53;;;15.40;99.90;;;;;;5113036;28;20089;-70
2023/07/02 02:54:24;;;;;;;5.57;3.78;;;15.40;99.90;;;;;;5113045;28;20028;-70
2023/07/02 02:56:49;;;;;;;5.05;4.15;;;15.40;99.90;;;;;;5113653;28;20108;-70
2023/07/02 02:59:15;;;;;;;4.85;3.65;;;15.40;99.90;;;;;;5116905;28;20020;-70
2023/07/02 03:01:41;;;;;;;5.32;3.97;;;15.40;99.90;;;;;;5116887;28;20073;-70
2023/07/02 03:04:08;;;;;;;6.53;4.25;;;15.50;99.90;;;;;;5116773;28;20031;-70
2023/07/02 03:06:34;;;;;;;5.72;3.72;;;15.50;99.90;;;;;;5116675;28;20028;-70
2023/07/02 03:08:59;;;;;;;5.47;4.00;;;15.40;99.90;;;;;;5116740;28;20047;-70
2023/07/02 03:11:25;;;;;;;5.25;3.97;;;15.40;99.90;;;;;;5116689;28;20433;-70
2023/07/02 03:13:51;;;;;;;6.88;3.90;;;15.40;99.90;;;;;;5116426;28;20031;-70
2023/07/02 03:16:16;;;;;;;5.03;3.38;;;15.40;99.90;;;;;;5117204;28;20020;-70
2023/07/02 03:18:42;;;;;;;5.72;3.67;;;15.40;99.90;;;;;;5116592;28;20077;-70
2023/07/02 03:21:08;;;;;;;6.00;3.88;;;15.30;99.90;;;;;;5116311;28;20024;-70
2023/07/02 03:23:34;;;;;;;4.70;3.70;;;15.30;99.90;;;;;;5128370;27;20042;-70
2023/07/02 03:26:00;;;;;;;4.72;3.50;;;15.30;99.90;;;;;;5118660;27;20031;-70
2023/07/02 03:28:25;;;;;;;5.90;3.88;;;15.40;99.90;;;;;;5136981;27;20118;-70
2023/07/02 03:30:51;;;;;;;5.40;4.00;;;15.40;99.90;;;;;;5137019;27;20106;-70
2023/07/02 03:33:16;;;;;;;5.45;4.20;;;15.40;99.90;;;;;;5137067;27;20429;-70
2023/07/02 03:35:42;;;;;;;6.35;4.15;;;15.40;99.90;;;;;;5136592;27;20488;-70
2023/07/02 03:38:08;;;;;;;4.72;3.50;;;15.40;99.90;;;;;;5137069;27;20054;-70
2023/07/02 03:40:33;;;;;;;4.90;3.60;;;15.40;99.90;;;;;;5118384;27;20385;-70
2023/07/02 03:42:59;;;;;;;6.20;3.78;;;15.30;99.90;;;;;;5136943;27;20055;-70
2023/07/02 03:45:25;;;;;;;6.22;4.25;;;15.30;99.90;;;;;;5118553;27;20050;-70
2023/07/02 03:47:51;;;;;;;5.00;3.70;;;15.30;99.90;;;;;;5136554;27;20114;-70
2023/07/02 03:50:17;;;;;;;5.28;3.85;;;15.30;99.90;;;;;;5101084;27;20034;-70
2023/07/02 03:52:43;;;;;;;5.82;3.83;;;15.30;99.90;;;;;;5118310;27;20035;-70
2023/07/02 03:55:09;;;;;;;5.97;3.72;;;15.30;99.90;;;;;;5136371;27;20031;-70
2023/07/02 03:57:34;;;;;;;6.40;4.05;;;15.30;99.90;;;;;;5136919;27;20015;-70
2023/07/02 04:00:00;;;;;;;7.45;4.43;;;15.30;99.90;;;;;;5136297;27;20024;-70
2023/07/02 04:02:26;;;;;;;6.03;4.20;;;15.30;99.90;;;;;;5136319;27;20019;-70
2023/07/02 04:04:51;;;;;;;6.28;3.92;;;15.30;99.90;;;;;;5136377;27;20504;-70
2023/07/02 04:07:17;;;;;;;5.72;3.83;;;15.30;99.90;;;;;;5135943;27;20392;-70
2023/07/02 04:09:43;;;;;;;5.18;3.85;;;15.30;99.90;;;;;;5134864;27;20098;-70
2023/07/02 04:12:09;;;;;;;5.50;3.92;;;15.30;99.90;;;;;;5136106;27;20027;-70
2023/07/02 04:14:35;;;;;;;4.60;4.00;;;15.20;99.90;;;;;;5135739;27;20031;-71
2023/07/02 04:17:03;;;;;;;6.32;4.00;;;15.30;99.90;;;;;;5136003;27;20080;-70
2023/07/02 04:19:29;;;;;;;8.00;4.85;;;15.20;99.90;;;;;;5135940;27;20135;-70
2023/07/02 04:21:54;;;;;;;7.70;5.00;;;15.30;99.90;;;;;;5135698;27;20487;-70
2023/07/02 04:24:20;;;;;;;5.82;4.65;;;15.20;99.90;;;;;;5136057;27;20528;-70
2023/07/02 04:26:46;;;;;;;5.75;4.10;;;15.30;99.90;;;;;;5135653;27;20481;-70
2023/07/02 04:29:11;;;;;;;5.28;3.70;;;15.30;99.90;;;;;;5135860;27;20023;-70
2023/07/02 04:31:37;;;;;;;6.75;4.00;;;15.20;99.90;;;;;;5135911;27;20038;-70
2023/07/02 04:34:05;;;;;;;7.63;4.30;;;15.20;99.90;;;;;;5135976;27;20489;-70
2023/07/02 04:36:31;;;;;;;7.25;4.13;;;15.20;99.90;;;;;;5135345;27;20038;-70
2023/07/02 04:38:57;;;;;;;5.18;3.65;;;15.20;99.90;;;;;;5135843;27;20019;-70
2023/07/02 04:41:22;;;;;;;6.72;3.85;;;15.10;99.90;;;;;;5135486;27;20114;-70
2023/07/02 04:43:48;;;;;;;7.03;3.85;;;15.10;99.90;;;;;;5135649;27;20111;-70
2023/07/02 04:46:14;;;;;;;6.45;4.35;;;15.10;99.90;;;;;;5135700;27;20023;-70
2023/07/02 04:48:40;;;;;;;5.13;4.28;;;15.10;99.90;;;;;;5135374;27;20454;-70
2023/07/02 04:51:05;;;;;;;5.22;3.72;;;15.10;99.90;;;;;;5135113;27;20027;-70
2023/07/02 04:53:31;;;;;;;4.40;3.25;;;15.10;99.90;;;;;;5135196;27;20066;-70
2023/07/02 04:55:57;;;;;;;4.18;3.40;;;15.10;99.90;;;;;;5135170;27;20024;-70
2023/07/02 04:58:23;;;;;;;5.43;3.30;;;15.20;99.90;;;;;;5135151;27;20024;-70
2023/07/02 05:00:48;;;;;;;4.30;3.05;;;15.20;99.90;;;;;;5135407;27;20072;-70
2023/07/02 05:03:14;;;;;;;5.57;3.78;;;15.20;99.90;;;;;;5135381;27;20027;-70
2023/07/02 05:05:40;;;;;;;8.07;4.15;;;15.20;99.90;;;;;;5135229;27;20023;-70
2023/07/02 05:08:05;;;;;;;4.88;3.75;;;15.30;99.90;;;;;;5135232;27;20102;-71
2023/07/02 05:10:31;;;;;;;4.68;3.50;;;15.40;99.90;;;;;;5134870;27;20027;-70
2023/07/02 05:12:57;;;;;;;5.75;3.60;;;15.40;99.90;;;;;;5134866;27;20038;-71
2023/07/02 05:15:24;;;;;;;5.07;3.78;;;15.40;99.90;;;;;;5134738;27;20031;-70
2023/07/02 05:17:49;;;;;;;5.15;3.63;;;15.50;99.90;;;;;;5134812;27;20036;-70
2023/07/02 05:20:15;;;;;;;5.05;3.75;;;15.50;99.90;;;;;;5134303;27;20023;-70
2023/07/02 05:22:41;;;;;;;4.38;3.35;;;15.60;99.90;;;;;;5134463;27;20033;-71
2023/07/02 05:25:07;;;;;;;5.55;3.67;;;15.60;99.90;;;;;;5134569;27;20031;-71
2023/07/02 05:27:33;;;;;;;4.85;3.75;;;15.70;99.90;;;;;;5134628;27;20023;-71
2023/07/02 05:29:58;;;;;;;5.05;3.15;;;15.70;99.90;;;;;;5134629;27;20451;-70
2023/07/02 05:32:24;;;;;;;4.35;3.28;;;15.80;99.90;;;;;;5133574;27;20031;-71
2023/07/02 05:34:50;;;;;;;5.03;3.05;;;15.80;99.90;;;;;;5113821;28;20481;-71
2023/07/02 05:37:16;;;;;;;4.10;3.00;;;15.80;99.90;;;;;;5113742;28;20435;-71
2023/07/02 05:39:41;;;;;;;4.30;3.03;;;15.80;99.90;;;;;;5126554;27;20032;-71
2023/07/02 05:42:07;;;;;;;4.47;2.75;;;15.80;99.90;;;;;;5134456;27;20480;-71
2023/07/02 05:44:33;;;;;;;3.85;2.88;;;15.80;99.90;;;;;;5134507;27;20526;-71
2023/07/02 05:46:58;;;;;;;5.75;4.20;;;15.90;99.90;;;;;;5134679;27;20079;-71
2023/07/02 05:49:26;;;;;;;5.95;4.05;;;15.90;99.90;;;;;;5134598;27;20032;-71
2023/07/02 05:51:52;;;;;;;6.40;4.15;;;15.90;99.90;;;;;;5134233;27;20431;-71
2023/07/02 05:54:17;;;;;;;5.43;3.90;;;15.90;99.90;;;;;;5134175;27;20031;-71
2023/07/02 05:56:43;;;;;;;6.63;4.47;;;15.90;99.90;;;;;;5134834;27;20488;-71
2023/07/02 05:59:09;;;;;;;5.40;3.83;;;15.90;99.90;;;;;;5134247;28;20023;-71
2023/07/02 06:01:34;;;;;;;5.38;3.72;;;16.00;99.90;;;;;;5134227;28;20024;-71
2023/07/02 06:04:00;;;;;;;8.90;4.40;;;16.00;99.90;;;;;;5134147;28;20037;-71
2023/07/02 06:06:26;;;;;;;5.13;3.95;;;16.00;99.90;;;;;;5133964;28;20098;-71
2023/07/02 06:08:52;;;;;;;6.50;4.25;;;16.10;99.90;;;;;;5134090;28;20024;-71
2023/07/02 06:11:18;;;;;;;6.32;3.70;;;16.10;99.90;;;;;;5116278;28;20084;-71
2023/07/02 06:13:43;;;;;;;4.15;3.03;;;16.10;99.90;;;;;;5133841;28;20023;-71
2023/07/02 06:16:09;;;;;;;6.57;4.00;;;16.10;99.90;;;;;;5133677;28;20493;-71
2023/07/02 06:18:35;;;;;;;5.55;3.97;;;16.10;99.90;;;;;;5134082;28;20091;-71
2023/07/02 06:21:00;;;;;;;5.47;4.00;;;16.20;99.90;;;;;;5133767;28;20032;-71
2023/07/02 06:23:26;;;;;;;7.68;4.70;;;16.10;99.90;;;;;;5134244;28;20132;-71
2023/07/02 06:25:52;;;;;;;4.93;3.85;;;16.20;99.90;;;;;;5133865;28;20492;-71
2023/07/02 06:28:19;;;;;;;6.97;4.43;;;16.10;99.90;;;;;;5133898;28;20063;-71
2023/07/02 06:30:45;;;;;;;7.07;3.92;;;16.20;99.90;;;;;;5134159;27;20433;-71
2023/07/02 06:33:10;;;;;;;5.50;4.07;;;16.20;99.90;;;;;;5136655;27;20031;-71
2023/07/02 06:35:36;;;;;;;5.28;4.13;;;16.20;99.90;;;;;;5138157;27;20350;-71
2023/07/02 06:38:01;;;;;;;5.63;4.45;;;16.30;99.90;;;;;;5137677;27;20110;-71
2023/07/02 06:40:27;;;;;;;6.82;4.53;;;16.30;99.90;;;;;;5118645;27;20035;-71
2023/07/02 06:42:53;;;;;;;5.80;4.30;;;16.30;99.90;;;;;;5117279;28;20077;-71
2023/07/02 06:45:18;;;;;;;6.63;4.10;;;16.30;99.90;;;;;;5116894;28;20028;-71
2023/07/02 06:47:44;;;;;;;6.22;4.15;;;16.30;99.90;;;;;;5117098;28;20023;-71
2023/07/02 06:50:10;;;;;;;90.18;39.42;;;16.30;99.90;;;;;;5117386;28;20062;-71
2023/07/02 06:52:36;;;;;;;9.88;5.70;;;16.40;99.90;;;;;;5116907;28;20047;-71
2023/07/02 06:55:04;;;;;;;5.53;3.97;;;16.30;99.90;;;;;;5116887;28;20036;-71
2023/07/02 06:57:29;;;;;;;4.72;3.50;;;16.40;99.90;;;;;;5117338;28;20027;-71
2023/07/02 06:59:59;;;;;;;4.82;3.08;;;16.40;99.90;;;;;;5116988;28;20030;-71
2023/07/02 07:02:25;;;;;;;4.35;3.47;;;16.40;99.90;;;;;;5116921;28;20020;-71
2023/07/02 07:04:50;;;;;;;4.90;3.10;;;16.40;99.90;;;;;;5116854;28;20042;-71
2023/07/02 07:07:16;;;;;;;10.43;6.50;;;16.40;99.90;;;;;;5116690;28;20114;-70
2023/07/02 07:09:41;;;;;;;8.98;5.10;;;16.50;99.90;;;;;;5116735;28;20076;-70
2023/07/02 07:12:07;;;;;;;5.35;3.97;;;16.50;99.90;;;;;;5116724;28;20107;-70
2023/07/02 07:14:33;;;;;;;4.78;3.40;;;16.70;99.90;;;;;;5116450;28;20078;-70
2023/07/02 07:16:59;;;;;;;7.10;4.53;;;16.70;99.90;;;;;;5116647;28;20157;-70
2023/07/02 07:19:24;;;;;;;5.32;3.80;;;16.70;99.90;;;;;;5116544;28;20035;-71
2023/07/02 07:21:50;;;;;;;5.20;2.80;;;16.80;99.90;;;;;;5116385;28;20023;-71
2023/07/02 07:24:15;;;;;;;3.95;3.03;;;16.80;99.90;;;;;;5116961;28;20495;-71
2023/07/02 07:26:41;;;;;;;4.63;2.90;;;16.80;99.90;;;;;;5117001;28;20032;-70
2023/07/02 07:29:07;;;;;;;3.72;2.63;;;16.80;99.90;;;;;;5116964;28;20038;-71
2023/07/02 07:31:32;;;;;;;3.95;2.72;;;16.80;99.90;;;;;;5116624;28;20063;-71
2023/07/02 07:33:58;;;;;;;4.07;2.65;;;16.90;99.90;;;;;;5115035;28;20035;-71
2023/07/02 07:36:24;;;;;;;3.08;2.30;;;16.90;99.90;;;;;;5097384;28;20024;-71
2023/07/02 07:38:49;;;;;;;3.42;2.15;;;17.00;99.90;;;;;;5114561;28;20031;-71
2023/07/02 07:41:15;;;;;;;3.70;2.20;;;17.00;99.90;;;;;;5115150;28;20497;-71
2023/07/02 07:43:41;;;;;;;4.28;2.13;;;17.10;99.90;;;;;;5114863;28;20114;-71
2023/07/02 07:46:06;;;;;;;3.15;2.15;;;17.10;99.90;;;;;;5115462;28;20393;-71
2023/07/02 07:48:32;;;;;;;2.80;1.77;;;17.10;99.90;;;;;;5115787;28;20546;-71
2023/07/02 07:50:57;;;;;;;2.40;1.50;;;17.10;99.90;;;;;;5115828;28;20486;-71
2023/07/02 07:53:23;;;;;;;2.65;1.50;;;17.10;99.90;;;;;;5116171;28;20466;-70
2023/07/02 07:55:49;;;;;;;2.10;1.40;;;17.10;99.90;;;;;;5115869;28;20039;-70
2023/07/02 07:58:15;;;;;;;2.30;1.30;;;17.20;99.90;;;;;;5115878;28;20496;-70
2023/07/02 08:00:40;;;;;;;3.22;1.70;;;17.20;99.90;;;;;;5115828;28;20027;-70
2023/07/02 08:03:06;;;;;;;2.83;1.63;;;17.30;99.90;;;;;;5115778;28;20473;-70
2023/07/02 08:05:32;;;;;;;2.08;1.23;;;17.30;99.90;;;;;;5115678;28;20038;-70
2023/07/02 08:07:58;;;;;;;3.25;1.40;;;17.30;99.90;;;;;;5115497;28;20024;-70
2023/07/02 08:10:25;;;;;;;2.53;1.15;;;17.30;99.90;;;;;;5117496;27;20020;-71
2023/07/02 08:12:52;;;;;;;2.22;1.35;;;17.30;99.90;;;;;;5136047;27;20037;-70
2023/07/02 08:15:18;;;;;;;1.75;1.10;;;17.30;99.90;;;;;;5135959;27;20058;-70
2023/07/02 08:17:43;;;;;;;1.92;1.10;;;17.30;99.90;;;;;;5136326;27;20019;-70
2023/07/02 08:20:10;;;;;;;1.65;1.00;;;17.20;99.90;;;;;;5136026;27;20393;-70
2023/07/02 08:22:40;;;;;;;1.50;1.05;;;17.30;99.90;;;;;;5135811;27;20047;-70
2023/07/02 08:25:06;;;;;;;2.00;1.20;;;17.30;99.90;;;;;;5117790;27;20034;-71
2023/07/02 08:27:32;;;;;;;3.10;1.35;;;17.30;99.90;;;;;;5135829;27;20261;-70
2023/07/02 08:29:58;;;;;;;2.15;1.35;;;17.30;99.90;;;;;;5135776;27;20026;-70
2023/07/02 08:32:23;;;;;;;2.53;1.40;;;17.40;99.90;;;;;;5135863;27;20481;-70
2023/07/02 08:34:50;;;;;;;2.03;1.33;;;17.40;99.90;;;;;;5135840;27;20031;-71
2023/07/02 08:37:16;;;;;;;2.88;1.67;;;17.50;99.90;;;;;;5135513;27;20057;-70
2023/07/02 08:39:42;;;;;;;2.97;1.52;;;17.50;99.90;;;;;;5135726;27;20110;-71
2023/07/02 08:42:08;;;;;;;3.50;1.77;;;17.60;99.90;;;;;;5135532;27;20153;-70
2023/07/02 08:44:35;;;;;;;2.88;1.95;;;17.70;99.90;;;;;;5135411;27;20027;-71
2023/07/02 08:47:01;;;;;;;3.17;1.88;;;17.70;99.90;;;;;;5135396;27;20034;-71
2023/07/02 08:49:27;;;;;;;2.53;1.52;;;17.70;99.90;;;;;;5117113;27;20034;-70
2023/07/02 08:51:53;;;;;;;2.92;2.00;;;17.70;99.90;;;;;;5135146;27;20027;-71
2023/07/02 08:54:19;;;;;;;2.45;1.70;;;17.80;99.90;;;;;;5134696;27;20029;-71
2023/07/02 08:56:46;;;;;;;4.00;1.73;;;17.80;99.90;;;;;;5135099;27;20051;-70
2023/07/02 08:59:11;;;;;;;3.47;2.40;;;17.90;99.90;;;;;;5135222;27;20028;-71
2023/07/02 09:01:51;;;;;;;2.95;1.77;;;17.90;99.90;;;;;;5135454;27;20027;-70
2023/07/02 09:04:21;;;;;;;2.72;1.55;;;17.90;99.90;;;;;;5135160;27;20041;-71
2023/07/02 09:06:51;;;;;;;2.30;1.58;;;18.00;99.90;;;;;;5135028;27;20053;-71
2023/07/02 09:09:17;;;;;;;3.50;2.00;;;17.90;99.90;;;;;;5134942;27;20027;-71
2023/07/02 09:11:51;;;;;;;3.47;2.15;;;18.00;99.90;;;;;;5135215;27;20043;-71
2023/07/02 09:14:31;;;;;;;4.15;1.95;;;18.00;99.90;;;;;;5134649;27;20114;-71
2023/07/02 09:17:09;;;;;;;5.13;1.85;;;18.00;99.90;;;;;;5134838;27;20073;-70
2023/07/02 09:19:36;;;;;;;2.95;2.15;;;18.10;99.90;;;;;;5134857;27;20023;-71
2023/07/02 09:22:02;;;;;;;2.63;1.80;;;18.10;99.90;;;;;;5134559;27;20027;-71
2023/07/02 09:24:30;;;;;;;4.25;2.38;;;18.10;99.90;;;;;;5134674;27;20055;-71
2023/07/02 09:27:00;;;;;;;3.13;2.13;;;18.10;99.90;;;;;;5116541;27;20031;-70
2023/07/02 09:29:33;;;;;;;3.08;2.00;;;18.20;99.90;;;;;;5135270;27;20106;-70
2023/07/02 09:32:02;;;;;;;2.78;1.70;;;18.20;99.90;;;;;;5134670;27;20027;-70
2023/07/02 09:34:32;;;;;;;3.28;1.60;;;18.30;99.90;;;;;;5134460;27;20102;-70
2023/07/02 09:36:59;;;;;;;3.60;1.60;;;18.30;99.90;;;;;;5134274;27;20488;-70
2023/07/02 09:39:35;;;;;;;2.67;1.80;;;18.30;99.90;;;;;;5134480;27;20053;-70
2023/07/02 09:42:05;;;;;;;3.80;1.73;;;18.30;99.90;;;;;;5134488;27;20054;-70
2023/07/02 09:44:33;;;;;;;3.33;1.80;;;18.30;99.90;;;;;;5134680;27;20027;-71
2023/07/02 09:47:04;;;;;;;3.63;1.45;;;18.30;99.90;;;;;;5134423;27;20050;-70
2023/07/02 09:49:38;;;;;;;4.88;1.60;;;18.30;99.90;;;;;;5134925;27;20051;-70
2023/07/02 09:52:09;;;;;;;2.50;1.45;;;18.30;99.90;;;;;;5134136;27;20019;-71
2023/07/02 09:54:35;;;;;;;;;;;18.40;99.90;;;;;;5135000;27;20055;-71
2023/07/02 09:57:02;;;;;;;3.78;1.55;;;18.40;99.90;;;;;;5134847;27;20276;-71
2023/07/02 09:59:28;;;;;;;3.03;1.40;;;18.50;99.90;;;;;;5134242;27;20019;-72
2023/07/02 10:01:54;;;;;;;4.30;1.60;;;18.50;99.90;;;;;;5134258;28;20020;-72
2023/07/02 10:04:23;;;;;;;2.33;1.30;;;18.50;99.90;;;;;;5134424;28;20031;-72
2023/07/02 10:06:52;;;;;;;8.77;1.65;;;18.50;99.90;;;;;;5136449;27;20024;-72
2023/07/02 10:09:33;;;;;;;2.42;1.58;;;18.40;99.90;;;;;;5138490;27;20021;-72
2023/07/02 10:11:59;;;;;;;3.25;1.60;;;18.30;99.90;;;;;;5138775;27;20534;-71
2023/07/02 10:14:25;;;;;;;4.72;1.60;;;18.20;99.90;;;;;;5138251;27;20039;-71
2023/07/02 10:16:51;;;;;;;2.13;1.20;;;18.20;99.90;;;;;;5138725;27;20027;-71
2023/07/02 10:19:17;;;;;;;2.47;1.40;;;18.10;99.90;;;;;;5138341;27;20027;-71
2023/07/02 10:21:45;;;;;;;1.90;1.40;;;18.10;99.90;;;;;;5120039;27;20538;-71
2023/07/02 10:24:11;;;;;;;2.40;1.70;;;18.00;99.90;;;;;;5138140;27;20023;-71
2023/07/02 10:26:37;;;;;;;2.00;1.35;;;18.10;99.90;;;;;;5138214;27;20054;-71
2023/07/02 10:29:03;;;;;;;3.50;1.45;;;18.10;99.90;;;;;;5138139;27;20055;-71
2023/07/02 10:31:28;;;;;;;3.95;1.90;;;18.10;99.90;;;;;;5119940;27;20027;-71
2023/07/02 10:33:54;;;;;;;3.85;2.10;;;18.10;99.90;;;;;;5137889;27;20036;-71
2023/07/02 10:36:21;;;;;;;3.35;2.47;;;18.20;99.90;;;;;;5138052;27;20061;-71
2023/07/02 10:38:48;;;;;;;4.50;2.97;;;18.30;99.90;;;;;;5137917;27;20109;-71
2023/07/02 10:41:27;;;;;;;6.80;3.22;;;18.30;99.90;;;;;;5137987;27;20025;-71
2023/07/02 10:43:53;;;;;;;5.55;3.50;;;18.40;99.90;;;;;;5137892;27;20071;-71
2023/07/02 10:46:20;;;;;;;6.00;3.78;;;18.30;99.90;;;;;;5137723;27;20076;-71
2023/07/02 10:48:55;;;;;;;5.03;3.35;;;18.30;99.90;;;;;;5137736;27;20027;-71
2023/07/02 10:51:22;;;;;;;5.05;3.70;;;18.30;99.90;;;;;;5137566;27;20030;-71
2023/07/02 10:54:04;;;;;;;7.13;3.42;;;18.30;99.90;;;;;;5118965;27;20046;-71
2023/07/02 10:56:31;;;;;;;5.50;3.67;;;18.30;99.90;;;;;;5137889;27;20027;-71
2023/07/02 10:58:57;;;;;;;7.40;4.60;;;18.30;99.90;;;;;;5137486;27;20103;-71
2023/07/02 11:01:31;;;;;;;9.63;4.28;;;18.30;99.90;;;;;;5137430;27;20019;-71
2023/07/02 11:04:01;;;;;;;9.57;4.85;;;18.20;99.90;;;;;;5137408;27;20076;-71
2023/07/02 11:06:32;;;;;;;7.47;4.70;;;18.20;99.90;;;;;;5137261;27;20431;-70
2023/07/02 11:08:58;;;;;;;6.43;4.75;;;18.10;99.90;;;;;;5137568;27;20110;-71
2023/07/02 11:11:24;;;;;;;8.90;4.82;;;18.10;99.90;;;;;;5119538;27;20092;-71
2023/07/02 11:13:51;;;;;;;9.15;5.15;;;18.20;99.90;;;;;;5137117;27;20027;-71
2023/07/02 11:16:18;;;;;;;6.50;4.63;;;18.20;99.90;;;;;;5137111;27;20050;-71
2023/07/02 11:18:43;;;;;;;8.43;5.57;;;18.20;99.90;;;;;;5136502;27;20015;-72
2023/07/02 11:21:12;;;;;;;9.25;5.00;;;18.30;99.90;;;;;;5135622;27;20228;-71
2023/07/02 11:23:37;;;;;;;10.50;5.78;;;18.20;99.90;;;;;;5135640;27;20031;-71
2023/07/02 11:26:03;;;;;;;10.02;5.85;;;18.30;99.90;;;;;;5136922;27;20080;-72
2023/07/02 11:28:31;;;;;;;9.30;5.32;;;18.30;99.90;;;;;;5136126;27;20023;-71
2023/07/02 11:30:58;;;;;;;9.85;6.00;;;18.20;99.90;;;;;;5136587;27;20027;-71
2023/07/02 11:33:37;;;;;;;11.73;6.10;;;18.30;99.90;;;;;;5136140;27;20023;-71
2023/07/02 11:36:04;;;;;;;10.23;6.70;;;18.30;99.90;;;;;;5136404;27;20027;-71
2023/07/02 11:38:29;;;;;;;10.93;6.07;;;18.40;99.90;;;;;;5136470;27;20114;-71
2023/07/02 11:40:55;;;;;;;11.75;6.35;;;18.40;99.90;;;;;;5135982;27;20106;-71
2023/07/02 11:43:21;;;;;;;10.43;6.53;;;18.50;99.90;;;;;;5136921;27;20023;-72
2023/07/02 11:45:46;;;;;;;9.45;6.47;;;18.60;99.90;;;;;;5136846;27;20030;-71
2023/07/02 11:48:12;;;;;;;9.43;6.40;;;18.70;99.90;;;;;;5136928;27;20075;-72
2023/07/02 11:50:38;;;;;;;12.30;7.38;;;18.70;99.90;;;;;;5136796;27;20028;-71
2023/07/02 11:53:04;;;;;;;12.48;7.32;;;18.80;99.90;;;;;;5136217;27;20035;-71
2023/07/02 11:55:30;;;;;;;12.32;6.85;;;18.90;99.90;;;;;;5135676;27;20552;-71
2023/07/02 11:57:56;;;;;;;10.57;6.72;;;19.00;99.90;;;;;;5134407;27;20111;-71
2023/07/02 12:00:22;;;;;;;13.27;8.25;;;19.20;99.90;;;;;;5134575;27;20024;-71
2023/07/02 12:02:48;;;;;;;12.95;7.45;;;19.30;99.90;;;;;;5135181;27;20027;-71
2023/07/02 12:05:14;;;;;;;12.68;6.90;;;19.50;99.90;;;;;;5116779;27;20024;-71
2023/07/02 12:07:40;;;;;;;12.23;7.45;;;19.60;99.90;;;;;;5135062;27;20545;-71
2023/07/02 12:10:07;;;;;;;11.80;7.40;;;19.70;99.90;;;;;;5135156;27;20423;-71
2023/07/02 12:12:33;;;;;;;13.23;7.45;;;19.80;99.90;;;;;;5135944;27;20027;-72
2023/07/02 12:14:58;;;;;;;12.93;7.75;;;19.80;99.90;;;;;;5135915;27;20084;-72
2023/07/02 12:17:24;;;;;;;10.48;7.13;;;19.90;99.90;;;;;;5100653;27;20061;-72
2023/07/02 12:19:50;;;;;;;14.98;7.97;;;20.10;99.90;;;;;;5136188;27;20076;-72
2023/07/02 12:22:16;;;;;;;13.05;7.43;;;20.30;99.90;;;;;;5129733;27;20407;-71
2023/07/02 12:24:42;;;;;;;13.20;8.13;;;20.40;99.90;;;;;;5115517;27;20524;-71
2023/07/02 12:27:08;;;;;;;13.25;8.30;;;20.40;99.90;;;;;;5097146;28;20036;-72
2023/07/02 12:29:33;;;;;;;14.10;7.82;;;20.50;99.90;;;;;;5114190;28;20038;-72
2023/07/02 12:31:59;;;;;;;10.60;7.00;;;20.70;99.90;;;;;;5115268;28;20197;-72
2023/07/02 12:34:25;;;;;;;11.77;7.53;;;20.80;99.90;;;;;;5115063;28;20024;-72
2023/07/02 12:36:50;;;;;;;9.80;6.63;;;20.80;99.90;;;;;;5114719;28;20106;-71
2023/07/02 12:39:16;;;;;;;11.38;6.13;;;21.00;99.90;;;;;;5124180;27;20392;-71
2023/07/02 12:41:42;;;;;;;11.63;7.22;;;21.10;99.90;;;;;;5135666;27;20114;-71